sensor_id;sensor_type;location;lat;lon;timestamp;P1;durP1;ratioP1;P2;durP2;ratioP2
32469;SDS011;18925;48.356;10.864;2022-07-29T00:00:00;11.43;;;8.13;;
32469;SDS011;18925;48.356;10.864;2022-07-29T00:00:31;15.00;;;9.60;;
32469;SDS011;18925;48.356;10.864;2022-07-29T00:01:01;11.43;;;10.23;;
32469;SDS011;18925;48.356;10.864;2022-07-29T00:01:32;13.55;;;10.52;;
32469;SDS011;18925;48.356;10.864;2022-07-29T00:02:03;11.27;;;10.07;;
32469;SDS011;18925;48.356;10.864;2022-07-29T00:02:33;10.45;;;8.73;;
32469;SDS011;18925;48.356;10.864;2022-07-29T00:03:04;11.88;;;7.25;;
32469;SDS011;18925;48.356;10.864;2022-07-29T00:03:35;8.15;;;6.20;;
32469;SDS011;18925;48.356;10.864;2022-07-29T00:04:05;11.32;;;8.68;;
32469;SDS011;18925;48.356;10.864;2022-07-29T00:04:36;11.80;;;9.55;;
32469;SDS011;18925;48.356;10.864;2022-07-29T00:05:07;10.70;;;9.55;;
32469;SDS011;18925;48.356;10.864;2022-07-29T00:05:39;9.05;;;7.70;;
32469;SDS011;18925;48.356;10.864;2022-07-29T00:06:10;10.02;;;7.15;;
32469;SDS011;18925;48.356;10.864;2022-07-29T00:06:41;8.55;;;7.45;;
32469;SDS011;18925;48.356;10.864;2022-07-29T00:07:11;12.40;;;6.75;;
32469;SDS011;18925;48.356;10.864;2022-07-29T00:07:42;9.70;;;6.97;;
32469;SDS011;18925;48.356;10.864;2022-07-29T00:08:13;9.60;;;8.23;;
32469;SDS011;18925;48.356;10.864;2022-07-29T00:08:45;12.25;;;9.40;;
32469;SDS011;18925;48.356;10.864;2022-07-29T00:09:16;11.65;;;9.98;;
32469;SDS011;18925;48.356;10.864;2022-07-29T00:09:46;13.50;;;9.85;;
32469;SDS011;18925;48.356;10.864;2022-07-29T00:10:17;9.75;;;7.68;;
32469;SDS011;18925;48.356;10.864;2022-07-29T00:10:47;8.85;;;7.95;;
32469;SDS011;18925;48.356;10.864;2022-07-29T00:11:18;9.38;;;7.63;;
32469;SDS011;18925;48.356;10.864;2022-07-29T00:11:49;10.75;;;8.20;;
32469;SDS011;18925;48.356;10.864;2022-07-29T00:12:20;11.93;;;8.52;;
32469;SDS011;18925;48.356;10.864;2022-07-29T00:12:53;13.93;;;8.27;;
32469;SDS011;18925;48.356;10.864;2022-07-29T00:13:23;10.20;;;8.02;;
32469;SDS011;18925;48.356;10.864;2022-07-29T00:13:54;10.65;;;7.60;;
32469;SDS011;18925;48.356;10.864;2022-07-29T00:14:25;9.25;;;8.32;;
32469;SDS011;18925;48.356;10.864;2022-07-29T00:14:56;8.75;;;7.05;;
32469;SDS011;18925;48.356;10.864;2022-07-29T00:15:27;11.38;;;8.20;;
32469;SDS011;18925;48.356;10.864;2022-07-29T00:15:58;14.60;;;7.82;;
32469;SDS011;18925;48.356;10.864;2022-07-29T00:16:29;14.73;;;9.20;;
32469;SDS011;18925;48.356;10.864;2022-07-29T00:17:00;8.60;;;7.70;;
32469;SDS011;18925;48.356;10.864;2022-07-29T00:17:31;9.85;;;7.97;;
32469;SDS011;18925;48.356;10.864;2022-07-29T00:18:01;11.18;;;8.13;;
32469;SDS011;18925;48.356;10.864;2022-07-29T00:18:32;13.90;;;8.60;;
32469;SDS011;18925;48.356;10.864;2022-07-29T00:19:03;14.02;;;8.50;;
32469;SDS011;18925;48.356;10.864;2022-07-29T00:19:34;12.50;;;8.45;;
32469;SDS011;18925;48.356;10.864;2022-07-29T00:20:05;11.02;;;9.80;;
32469;SDS011;18925;48.356;10.864;2022-07-29T00:20:36;8.45;;;7.47;;
32469;SDS011;18925;48.356;10.864;2022-07-29T00:21:07;10.60;;;8.23;;
32469;SDS011;18925;48.356;10.864;2022-07-29T00:21:37;15.10;;;7.82;;
32469;SDS011;18925;48.356;10.864;2022-07-29T00:22:08;10.00;;;9.00;;
32469;SDS011;18925;48.356;10.864;2022-07-29T00:22:39;12.55;;;9.15;;
32469;SDS011;18925;48.356;10.864;2022-07-29T00:23:09;11.77;;;9.00;;
32469;SDS011;18925;48.356;10.864;2022-07-29T00:23:40;12.18;;;10.05;;
32469;SDS011;18925;48.356;10.864;2022-07-29T00:24:11;8.82;;;7.93;;
32469;SDS011;18925;48.356;10.864;2022-07-29T00:24:41;10.63;;;8.60;;
32469;SDS011;18925;48.356;10.864;2022-07-29T00:25:12;9.75;;;7.72;;
32469;SDS011;18925;48.356;10.864;2022-07-29T00:25:43;11.40;;;9.27;;
32469;SDS011;18925;48.356;10.864;2022-07-29T00:26:14;9.38;;;7.95;;
32469;SDS011;18925;48.356;10.864;2022-07-29T00:26:44;11.68;;;8.40;;
32469;SDS011;18925;48.356;10.864;2022-07-29T00:27:15;10.93;;;9.82;;
32469;SDS011;18925;48.356;10.864;2022-07-29T00:27:46;15.23;;;9.90;;
32469;SDS011;18925;48.356;10.864;2022-07-29T00:28:17;13.52;;;8.90;;
32469;SDS011;18925;48.356;10.864;2022-07-29T00:28:48;14.07;;;7.75;;
32469;SDS011;18925;48.356;10.864;2022-07-29T00:29:18;18.52;;;8.30;;
32469;SDS011;18925;48.356;10.864;2022-07-29T00:29:49;10.50;;;9.50;;
32469;SDS011;18925;48.356;10.864;2022-07-29T00:30:19;12.05;;;8.50;;
32469;SDS011;18925;48.356;10.864;2022-07-29T00:30:50;10.23;;;8.13;;
32469;SDS011;18925;48.356;10.864;2022-07-29T00:31:21;12.60;;;7.78;;
32469;SDS011;18925;48.356;10.864;2022-07-29T00:31:51;10.02;;;7.60;;
32469;SDS011;18925;48.356;10.864;2022-07-29T00:32:22;11.60;;;7.45;;
32469;SDS011;18925;48.356;10.864;2022-07-29T00:32:53;14.05;;;10.10;;
32469;SDS011;18925;48.356;10.864;2022-07-29T00:33:23;14.65;;;10.20;;
32469;SDS011;18925;48.356;10.864;2022-07-29T00:33:54;13.27;;;8.57;;
32469;SDS011;18925;48.356;10.864;2022-07-29T00:34:25;12.13;;;9.82;;
32469;SDS011;18925;48.356;10.864;2022-07-29T00:35:14;12.20;;;9.10;;
32469;SDS011;18925;48.356;10.864;2022-07-29T00:36:03;12.05;;;9.13;;
32469;SDS011;18925;48.356;10.864;2022-07-29T00:36:34;10.98;;;8.32;;
32469;SDS011;18925;48.356;10.864;2022-07-29T00:37:05;14.57;;;9.45;;
32469;SDS011;18925;48.356;10.864;2022-07-29T00:37:35;15.55;;;11.32;;
32469;SDS011;18925;48.356;10.864;2022-07-29T00:38:06;12.88;;;9.85;;
32469;SDS011;18925;48.356;10.864;2022-07-29T00:38:37;11.55;;;9.38;;
32469;SDS011;18925;48.356;10.864;2022-07-29T00:39:07;12.73;;;8.52;;
32469;SDS011;18925;48.356;10.864;2022-07-29T00:39:38;13.30;;;9.07;;
32469;SDS011;18925;48.356;10.864;2022-07-29T00:40:09;12.27;;;9.00;;
32469;SDS011;18925;48.356;10.864;2022-07-29T00:40:40;12.13;;;8.30;;
32469;SDS011;18925;48.356;10.864;2022-07-29T00:41:11;13.40;;;8.75;;
32469;SDS011;18925;48.356;10.864;2022-07-29T00:41:42;11.73;;;8.15;;
32469;SDS011;18925;48.356;10.864;2022-07-29T00:42:12;10.95;;;8.95;;
32469;SDS011;18925;48.356;10.864;2022-07-29T00:42:44;14.95;;;9.10;;
32469;SDS011;18925;48.356;10.864;2022-07-29T00:43:16;14.07;;;8.00;;
32469;SDS011;18925;48.356;10.864;2022-07-29T00:43:48;10.93;;;9.55;;
32469;SDS011;18925;48.356;10.864;2022-07-29T00:44:18;17.35;;;9.57;;
32469;SDS011;18925;48.356;10.864;2022-07-29T00:44:49;12.18;;;9.90;;
32469;SDS011;18925;48.356;10.864;2022-07-29T00:45:20;13.05;;;9.32;;
32469;SDS011;18925;48.356;10.864;2022-07-29T00:45:52;12.95;;;8.65;;
32469;SDS011;18925;48.356;10.864;2022-07-29T00:46:22;10.85;;;8.63;;
32469;SDS011;18925;48.356;10.864;2022-07-29T00:46:53;10.55;;;7.85;;
32469;SDS011;18925;48.356;10.864;2022-07-29T00:47:23;9.85;;;7.97;;
32469;SDS011;18925;48.356;10.864;2022-07-29T00:47:54;11.05;;;8.23;;
32469;SDS011;18925;48.356;10.864;2022-07-29T00:48:24;8.82;;;7.68;;
32469;SDS011;18925;48.356;10.864;2022-07-29T00:48:55;11.60;;;7.88;;
32469;SDS011;18925;48.356;10.864;2022-07-29T00:49:26;9.77;;;7.97;;
32469;SDS011;18925;48.356;10.864;2022-07-29T00:49:56;11.85;;;8.80;;
32469;SDS011;18925;48.356;10.864;2022-07-29T00:50:27;9.63;;;8.55;;
32469;SDS011;18925;48.356;10.864;2022-07-29T00:50:58;12.90;;;9.15;;
32469;SDS011;18925;48.356;10.864;2022-07-29T00:51:31;12.93;;;8.93;;
32469;SDS011;18925;48.356;10.864;2022-07-29T00:52:02;9.68;;;8.57;;
32469;SDS011;18925;48.356;10.864;2022-07-29T00:52:35;8.68;;;7.85;;
32469;SDS011;18925;48.356;10.864;2022-07-29T00:53:07;11.43;;;9.07;;
32469;SDS011;18925;48.356;10.864;2022-07-29T00:53:38;11.07;;;8.40;;
32469;SDS011;18925;48.356;10.864;2022-07-29T00:54:09;9.23;;;8.05;;
32469;SDS011;18925;48.356;10.864;2022-07-29T00:54:40;12.63;;;8.27;;
32469;SDS011;18925;48.356;10.864;2022-07-29T00:55:12;11.60;;;9.32;;
32469;SDS011;18925;48.356;10.864;2022-07-29T00:55:43;13.10;;;9.45;;
32469;SDS011;18925;48.356;10.864;2022-07-29T00:56:14;10.75;;;9.65;;
32469;SDS011;18925;48.356;10.864;2022-07-29T00:56:44;11.25;;;9.00;;
32469;SDS011;18925;48.356;10.864;2022-07-29T00:57:15;13.73;;;10.02;;
32469;SDS011;18925;48.356;10.864;2022-07-29T00:57:46;13.07;;;9.95;;
32469;SDS011;18925;48.356;10.864;2022-07-29T00:58:17;13.57;;;10.45;;
32469;SDS011;18925;48.356;10.864;2022-07-29T00:58:47;11.20;;;9.77;;
32469;SDS011;18925;48.356;10.864;2022-07-29T00:59:20;14.57;;;11.07;;
32469;SDS011;18925;48.356;10.864;2022-07-29T00:59:51;10.70;;;9.32;;
32469;SDS011;18925;48.356;10.864;2022-07-29T01:00:22;15.60;;;11.90;;
32469;SDS011;18925;48.356;10.864;2022-07-29T01:00:54;16.38;;;11.35;;
32469;SDS011;18925;48.356;10.864;2022-07-29T01:01:25;13.98;;;10.13;;
32469;SDS011;18925;48.356;10.864;2022-07-29T01:01:56;13.75;;;9.75;;
32469;SDS011;18925;48.356;10.864;2022-07-29T01:02:27;11.23;;;9.38;;
32469;SDS011;18925;48.356;10.864;2022-07-29T01:02:57;14.05;;;11.52;;
32469;SDS011;18925;48.356;10.864;2022-07-29T01:03:28;11.38;;;8.77;;
32469;SDS011;18925;48.356;10.864;2022-07-29T01:03:58;15.98;;;13.23;;
32469;SDS011;18925;48.356;10.864;2022-07-29T01:04:30;13.40;;;10.27;;
32469;SDS011;18925;48.356;10.864;2022-07-29T01:05:02;14.75;;;11.77;;
32469;SDS011;18925;48.356;10.864;2022-07-29T01:05:34;12.77;;;10.60;;
32469;SDS011;18925;48.356;10.864;2022-07-29T01:06:05;14.57;;;11.95;;
32469;SDS011;18925;48.356;10.864;2022-07-29T01:06:36;14.10;;;10.13;;
32469;SDS011;18925;48.356;10.864;2022-07-29T01:07:07;15.30;;;11.02;;
32469;SDS011;18925;48.356;10.864;2022-07-29T01:07:38;16.45;;;11.15;;
32469;SDS011;18925;48.356;10.864;2022-07-29T01:08:10;17.73;;;12.10;;
32469;SDS011;18925;48.356;10.864;2022-07-29T01:08:42;14.23;;;12.73;;
32469;SDS011;18925;48.356;10.864;2022-07-29T01:09:14;12.57;;;10.73;;
32469;SDS011;18925;48.356;10.864;2022-07-29T01:09:45;14.10;;;11.38;;
32469;SDS011;18925;48.356;10.864;2022-07-29T01:10:16;16.15;;;12.82;;
32469;SDS011;18925;48.356;10.864;2022-07-29T01:10:49;14.20;;;11.63;;
32469;SDS011;18925;48.356;10.864;2022-07-29T01:11:21;15.70;;;10.95;;
32469;SDS011;18925;48.356;10.864;2022-07-29T01:11:52;11.70;;;10.27;;
32469;SDS011;18925;48.356;10.864;2022-07-29T01:12:24;17.23;;;11.05;;
32469;SDS011;18925;48.356;10.864;2022-07-29T01:12:57;16.40;;;14.02;;
32469;SDS011;18925;48.356;10.864;2022-07-29T01:13:29;14.55;;;11.60;;
32469;SDS011;18925;48.356;10.864;2022-07-29T01:14:01;13.93;;;11.55;;
32469;SDS011;18925;48.356;10.864;2022-07-29T01:14:32;15.85;;;11.73;;
32469;SDS011;18925;48.356;10.864;2022-07-29T01:15:05;15.38;;;11.98;;
32469;SDS011;18925;48.356;10.864;2022-07-29T01:15:39;18.25;;;11.05;;
32469;SDS011;18925;48.356;10.864;2022-07-29T01:16:29;16.02;;;12.43;;
32469;SDS011;18925;48.356;10.864;2022-07-29T01:17:06;13.70;;;11.40;;
32469;SDS011;18925;48.356;10.864;2022-07-29T01:17:54;16.85;;;12.30;;
32469;SDS011;18925;48.356;10.864;2022-07-29T01:18:33;16.63;;;12.15;;
32469;SDS011;18925;48.356;10.864;2022-07-29T01:19:07;19.20;;;12.52;;
32469;SDS011;18925;48.356;10.864;2022-07-29T01:19:58;15.88;;;11.90;;
32469;SDS011;18925;48.356;10.864;2022-07-29T01:21:11;16.90;;;12.18;;
32469;SDS011;18925;48.356;10.864;2022-07-29T01:22:27;15.82;;;13.48;;
32469;SDS011;18925;48.356;10.864;2022-07-29T01:24:30;15.93;;;13.05;;
32469;SDS011;18925;48.356;10.864;2022-07-29T01:26:13;15.00;;;12.63;;
32469;SDS011;18925;48.356;10.864;2022-07-29T01:26:56;19.13;;;12.27;;
32469;SDS011;18925;48.356;10.864;2022-07-29T01:29:55;17.77;;;12.95;;
32469;SDS011;18925;48.356;10.864;2022-07-29T01:30:28;16.75;;;13.35;;
32469;SDS011;18925;48.356;10.864;2022-07-29T01:31:02;19.77;;;14.18;;
32469;SDS011;18925;48.356;10.864;2022-07-29T01:32:44;15.90;;;11.40;;
32469;SDS011;18925;48.356;10.864;2022-07-29T01:33:20;19.48;;;12.30;;
32469;SDS011;18925;48.356;10.864;2022-07-29T01:34:17;13.55;;;11.70;;
32469;SDS011;18925;48.356;10.864;2022-07-29T01:35:46;15.57;;;13.05;;
32469;SDS011;18925;48.356;10.864;2022-07-29T01:36:18;19.70;;;14.82;;
32469;SDS011;18925;48.356;10.864;2022-07-29T01:36:59;18.60;;;13.82;;
32469;SDS011;18925;48.356;10.864;2022-07-29T01:38:18;15.35;;;11.80;;
32469;SDS011;18925;48.356;10.864;2022-07-29T01:38:58;13.55;;;11.65;;
32469;SDS011;18925;48.356;10.864;2022-07-29T01:39:37;16.25;;;14.23;;
32469;SDS011;18925;48.356;10.864;2022-07-29T01:40:11;15.07;;;11.57;;
32469;SDS011;18925;48.356;10.864;2022-07-29T01:40:51;17.98;;;12.93;;
32469;SDS011;18925;48.356;10.864;2022-07-29T01:41:26;14.82;;;11.02;;
32469;SDS011;18925;48.356;10.864;2022-07-29T01:42:43;16.45;;;12.93;;
32469;SDS011;18925;48.356;10.864;2022-07-29T01:43:16;18.85;;;14.05;;
32469;SDS011;18925;48.356;10.864;2022-07-29T01:43:55;18.38;;;12.45;;
32469;SDS011;18925;48.356;10.864;2022-07-29T01:45:39;24.77;;;17.15;;
32469;SDS011;18925;48.356;10.864;2022-07-29T01:46:13;20.90;;;14.25;;
32469;SDS011;18925;48.356;10.864;2022-07-29T01:46:49;17.35;;;11.82;;
32469;SDS011;18925;48.356;10.864;2022-07-29T01:47:25;14.25;;;11.60;;
32469;SDS011;18925;48.356;10.864;2022-07-29T01:48:15;23.35;;;13.55;;
32469;SDS011;18925;48.356;10.864;2022-07-29T01:48:55;20.55;;;12.63;;
32469;SDS011;18925;48.356;10.864;2022-07-29T01:49:31;15.77;;;13.18;;
32469;SDS011;18925;48.356;10.864;2022-07-29T01:50:07;19.23;;;13.95;;
32469;SDS011;18925;48.356;10.864;2022-07-29T01:50:46;16.52;;;13.10;;
32469;SDS011;18925;48.356;10.864;2022-07-29T01:52:05;20.42;;;14.60;;
32469;SDS011;18925;48.356;10.864;2022-07-29T01:52:15;20.48;;;14.05;;
32469;SDS011;18925;48.356;10.864;2022-07-29T01:52:59;20.67;;;13.38;;
32469;SDS011;18925;48.356;10.864;2022-07-29T01:53:34;15.38;;;12.68;;
32469;SDS011;18925;48.356;10.864;2022-07-29T01:54:21;13.10;;;11.32;;
32469;SDS011;18925;48.356;10.864;2022-07-29T01:54:59;25.35;;;14.77;;
32469;SDS011;18925;48.356;10.864;2022-07-29T01:55:38;15.90;;;10.93;;
32469;SDS011;18925;48.356;10.864;2022-07-29T01:56:11;16.63;;;13.05;;
32469;SDS011;18925;48.356;10.864;2022-07-29T01:56:45;18.83;;;13.68;;
32469;SDS011;18925;48.356;10.864;2022-07-29T01:57:20;17.48;;;13.10;;
32469;SDS011;18925;48.356;10.864;2022-07-29T01:57:57;23.08;;;15.48;;
32469;SDS011;18925;48.356;10.864;2022-07-29T01:58:31;17.88;;;13.63;;
32469;SDS011;18925;48.356;10.864;2022-07-29T01:59:05;16.00;;;13.02;;
32469;SDS011;18925;48.356;10.864;2022-07-29T01:59:38;17.40;;;13.07;;
32469;SDS011;18925;48.356;10.864;2022-07-29T02:00:09;15.60;;;12.00;;
32469;SDS011;18925;48.356;10.864;2022-07-29T02:00:41;21.42;;;14.60;;
32469;SDS011;18925;48.356;10.864;2022-07-29T02:01:16;16.70;;;13.27;;
32469;SDS011;18925;48.356;10.864;2022-07-29T02:01:47;18.05;;;13.32;;
32469;SDS011;18925;48.356;10.864;2022-07-29T02:02:20;16.92;;;11.70;;
32469;SDS011;18925;48.356;10.864;2022-07-29T02:02:51;14.32;;;11.48;;
32469;SDS011;18925;48.356;10.864;2022-07-29T02:03:24;16.90;;;11.82;;
32469;SDS011;18925;48.356;10.864;2022-07-29T02:03:57;17.58;;;13.18;;
32469;SDS011;18925;48.356;10.864;2022-07-29T02:04:29;21.15;;;14.05;;
32469;SDS011;18925;48.356;10.864;2022-07-29T02:05:03;17.70;;;12.38;;
32469;SDS011;18925;48.356;10.864;2022-07-29T02:05:37;16.35;;;12.50;;
32469;SDS011;18925;48.356;10.864;2022-07-29T02:06:11;18.10;;;13.38;;
32469;SDS011;18925;48.356;10.864;2022-07-29T02:06:44;16.92;;;12.88;;
32469;SDS011;18925;48.356;10.864;2022-07-29T02:07:17;20.52;;;15.30;;
32469;SDS011;18925;48.356;10.864;2022-07-29T02:07:50;20.63;;;13.35;;
32469;SDS011;18925;48.356;10.864;2022-07-29T02:08:22;17.83;;;13.32;;
32469;SDS011;18925;48.356;10.864;2022-07-29T02:08:55;14.57;;;12.63;;
32469;SDS011;18925;48.356;10.864;2022-07-29T02:09:28;16.60;;;12.60;;
32469;SDS011;18925;48.356;10.864;2022-07-29T02:10:02;14.85;;;10.98;;
32469;SDS011;18925;48.356;10.864;2022-07-29T02:10:34;16.35;;;11.85;;
32469;SDS011;18925;48.356;10.864;2022-07-29T02:11:07;24.55;;;14.02;;
32469;SDS011;18925;48.356;10.864;2022-07-29T02:11:38;21.00;;;13.93;;
32469;SDS011;18925;48.356;10.864;2022-07-29T02:12:14;18.17;;;11.50;;
32469;SDS011;18925;48.356;10.864;2022-07-29T02:12:47;13.93;;;11.40;;
32469;SDS011;18925;48.356;10.864;2022-07-29T02:13:20;16.55;;;11.52;;
32469;SDS011;18925;48.356;10.864;2022-07-29T02:13:54;15.98;;;10.77;;
32469;SDS011;18925;48.356;10.864;2022-07-29T02:14:28;16.25;;;11.32;;
32469;SDS011;18925;48.356;10.864;2022-07-29T02:15:03;15.13;;;10.80;;
32469;SDS011;18925;48.356;10.864;2022-07-29T02:15:35;13.95;;;11.23;;
32469;SDS011;18925;48.356;10.864;2022-07-29T02:16:07;13.30;;;11.35;;
32469;SDS011;18925;48.356;10.864;2022-07-29T02:16:40;13.63;;;10.68;;
32469;SDS011;18925;48.356;10.864;2022-07-29T02:17:12;18.70;;;11.68;;
32469;SDS011;18925;48.356;10.864;2022-07-29T02:17:46;14.75;;;11.07;;
32469;SDS011;18925;48.356;10.864;2022-07-29T02:18:22;17.08;;;11.02;;
32469;SDS011;18925;48.356;10.864;2022-07-29T02:18:54;12.90;;;9.60;;
32469;SDS011;18925;48.356;10.864;2022-07-29T02:19:27;15.05;;;9.75;;
32469;SDS011;18925;48.356;10.864;2022-07-29T02:20:02;19.55;;;9.95;;
32469;SDS011;18925;48.356;10.864;2022-07-29T02:20:34;16.52;;;10.05;;
32469;SDS011;18925;48.356;10.864;2022-07-29T02:21:08;17.23;;;10.65;;
32469;SDS011;18925;48.356;10.864;2022-07-29T02:21:40;14.38;;;10.50;;
32469;SDS011;18925;48.356;10.864;2022-07-29T02:22:12;13.10;;;10.52;;
32469;SDS011;18925;48.356;10.864;2022-07-29T02:22:44;11.10;;;9.68;;
32469;SDS011;18925;48.356;10.864;2022-07-29T02:23:20;15.40;;;9.20;;
32469;SDS011;18925;48.356;10.864;2022-07-29T02:23:53;20.40;;;10.75;;
32469;SDS011;18925;48.356;10.864;2022-07-29T02:24:26;14.20;;;9.45;;
32469;SDS011;18925;48.356;10.864;2022-07-29T02:24:58;14.77;;;9.43;;
32469;SDS011;18925;48.356;10.864;2022-07-29T02:25:29;11.05;;;9.60;;
32469;SDS011;18925;48.356;10.864;2022-07-29T02:26:01;12.02;;;9.75;;
32469;SDS011;18925;48.356;10.864;2022-07-29T02:26:33;13.93;;;9.98;;
32469;SDS011;18925;48.356;10.864;2022-07-29T02:27:04;18.92;;;11.93;;
32469;SDS011;18925;48.356;10.864;2022-07-29T02:27:35;13.48;;;9.73;;
32469;SDS011;18925;48.356;10.864;2022-07-29T02:28:09;16.58;;;10.63;;
32469;SDS011;18925;48.356;10.864;2022-07-29T02:28:41;13.10;;;10.60;;
32469;SDS011;18925;48.356;10.864;2022-07-29T02:29:12;13.68;;;8.98;;
32469;SDS011;18925;48.356;10.864;2022-07-29T02:29:45;14.82;;;10.43;;
32469;SDS011;18925;48.356;10.864;2022-07-29T02:30:18;23.60;;;10.98;;
32469;SDS011;18925;48.356;10.864;2022-07-29T02:30:52;11.93;;;9.98;;
32469;SDS011;18925;48.356;10.864;2022-07-29T02:31:27;16.95;;;10.18;;
32469;SDS011;18925;48.356;10.864;2022-07-29T02:32:04;13.98;;;10.48;;
32469;SDS011;18925;48.356;10.864;2022-07-29T02:32:37;15.63;;;9.98;;
32469;SDS011;18925;48.356;10.864;2022-07-29T02:33:10;12.50;;;9.40;;
32469;SDS011;18925;48.356;10.864;2022-07-29T02:33:44;15.40;;;10.45;;
32469;SDS011;18925;48.356;10.864;2022-07-29T02:34:17;15.45;;;10.45;;
32469;SDS011;18925;48.356;10.864;2022-07-29T02:34:49;16.25;;;9.88;;
32469;SDS011;18925;48.356;10.864;2022-07-29T02:35:21;14.90;;;10.43;;
32469;SDS011;18925;48.356;10.864;2022-07-29T02:35:55;14.35;;;10.30;;
32469;SDS011;18925;48.356;10.864;2022-07-29T02:36:28;11.60;;;8.60;;
32469;SDS011;18925;48.356;10.864;2022-07-29T02:37:01;14.07;;;9.32;;
32469;SDS011;18925;48.356;10.864;2022-07-29T02:37:33;18.88;;;9.75;;
32469;SDS011;18925;48.356;10.864;2022-07-29T02:38:05;13.00;;;9.55;;
32469;SDS011;18925;48.356;10.864;2022-07-29T02:38:54;12.23;;;9.95;;
32469;SDS011;18925;48.356;10.864;2022-07-29T02:39:27;15.52;;;8.73;;
32469;SDS011;18925;48.356;10.864;2022-07-29T02:40:00;16.50;;;9.25;;
32469;SDS011;18925;48.356;10.864;2022-07-29T02:40:32;18.90;;;9.45;;
32469;SDS011;18925;48.356;10.864;2022-07-29T02:41:08;13.40;;;9.15;;
32469;SDS011;18925;48.356;10.864;2022-07-29T02:41:44;10.35;;;8.70;;
32469;SDS011;18925;48.356;10.864;2022-07-29T02:42:21;15.48;;;8.73;;
32469;SDS011;18925;48.356;10.864;2022-07-29T02:42:53;16.25;;;9.60;;
32469;SDS011;18925;48.356;10.864;2022-07-29T02:43:24;11.95;;;9.10;;
32469;SDS011;18925;48.356;10.864;2022-07-29T02:43:57;13.68;;;9.55;;
32469;SDS011;18925;48.356;10.864;2022-07-29T02:44:33;13.52;;;10.20;;
32469;SDS011;18925;48.356;10.864;2022-07-29T02:45:05;12.15;;;9.50;;
32469;SDS011;18925;48.356;10.864;2022-07-29T02:45:36;16.40;;;10.30;;
32469;SDS011;18925;48.356;10.864;2022-07-29T02:46:08;16.55;;;11.68;;
32469;SDS011;18925;48.356;10.864;2022-07-29T02:46:45;12.20;;;10.13;;
32469;SDS011;18925;48.356;10.864;2022-07-29T02:47:23;13.50;;;10.38;;
32469;SDS011;18925;48.356;10.864;2022-07-29T02:47:54;13.13;;;10.48;;
32469;SDS011;18925;48.356;10.864;2022-07-29T02:48:34;12.60;;;10.10;;
32469;SDS011;18925;48.356;10.864;2022-07-29T02:49:57;16.95;;;10.35;;
32469;SDS011;18925;48.356;10.864;2022-07-29T02:50:34;13.32;;;10.30;;
32469;SDS011;18925;48.356;10.864;2022-07-29T02:51:08;20.08;;;11.43;;
32469;SDS011;18925;48.356;10.864;2022-07-29T02:51:49;21.38;;;13.00;;
32469;SDS011;18925;48.356;10.864;2022-07-29T02:52:26;17.25;;;9.35;;
32469;SDS011;18925;48.356;10.864;2022-07-29T02:52:58;12.80;;;9.60;;
32469;SDS011;18925;48.356;10.864;2022-07-29T02:53:32;13.85;;;9.43;;
32469;SDS011;18925;48.356;10.864;2022-07-29T02:54:05;16.45;;;10.60;;
32469;SDS011;18925;48.356;10.864;2022-07-29T02:54:39;16.23;;;10.73;;
32469;SDS011;18925;48.356;10.864;2022-07-29T02:55:56;16.45;;;13.13;;
32469;SDS011;18925;48.356;10.864;2022-07-29T02:56:34;15.93;;;10.55;;
32469;SDS011;18925;48.356;10.864;2022-07-29T02:58:15;12.48;;;8.77;;
32469;SDS011;18925;48.356;10.864;2022-07-29T02:58:57;14.15;;;10.02;;
32469;SDS011;18925;48.356;10.864;2022-07-29T02:59:30;12.63;;;9.73;;
32469;SDS011;18925;48.356;10.864;2022-07-29T03:00:05;17.25;;;9.95;;
32469;SDS011;18925;48.356;10.864;2022-07-29T03:00:39;13.48;;;9.23;;
32469;SDS011;18925;48.356;10.864;2022-07-29T03:01:11;11.90;;;8.75;;
32469;SDS011;18925;48.356;10.864;2022-07-29T03:01:46;15.65;;;8.90;;
32469;SDS011;18925;48.356;10.864;2022-07-29T03:02:17;13.18;;;8.65;;
32469;SDS011;18925;48.356;10.864;2022-07-29T03:02:50;12.85;;;8.35;;
32469;SDS011;18925;48.356;10.864;2022-07-29T03:03:25;15.30;;;9.75;;
32469;SDS011;18925;48.356;10.864;2022-07-29T03:04:00;15.10;;;9.60;;
32469;SDS011;18925;48.356;10.864;2022-07-29T03:04:34;15.02;;;10.32;;
32469;SDS011;18925;48.356;10.864;2022-07-29T03:05:06;14.93;;;10.30;;
32469;SDS011;18925;48.356;10.864;2022-07-29T03:05:39;15.18;;;11.20;;
32469;SDS011;18925;48.356;10.864;2022-07-29T03:06:10;13.40;;;10.32;;
32469;SDS011;18925;48.356;10.864;2022-07-29T03:06:43;16.65;;;9.93;;
32469;SDS011;18925;48.356;10.864;2022-07-29T03:07:15;15.55;;;9.95;;
32469;SDS011;18925;48.356;10.864;2022-07-29T03:07:54;20.63;;;12.65;;
32469;SDS011;18925;48.356;10.864;2022-07-29T03:08:27;28.58;;;14.73;;
32469;SDS011;18925;48.356;10.864;2022-07-29T03:08:59;15.35;;;10.40;;
32469;SDS011;18925;48.356;10.864;2022-07-29T03:09:30;16.10;;;10.98;;
32469;SDS011;18925;48.356;10.864;2022-07-29T03:10:02;20.35;;;11.35;;
32469;SDS011;18925;48.356;10.864;2022-07-29T03:10:33;19.55;;;12.15;;
32469;SDS011;18925;48.356;10.864;2022-07-29T03:11:04;11.32;;;9.30;;
32469;SDS011;18925;48.356;10.864;2022-07-29T03:11:35;15.32;;;9.40;;
32469;SDS011;18925;48.356;10.864;2022-07-29T03:12:07;16.88;;;11.20;;
32469;SDS011;18925;48.356;10.864;2022-07-29T03:12:38;16.63;;;10.85;;
32469;SDS011;18925;48.356;10.864;2022-07-29T03:13:10;14.43;;;9.57;;
32469;SDS011;18925;48.356;10.864;2022-07-29T03:13:43;16.25;;;10.80;;
32469;SDS011;18925;48.356;10.864;2022-07-29T03:14:14;15.07;;;10.30;;
32469;SDS011;18925;48.356;10.864;2022-07-29T03:14:46;14.13;;;9.85;;
32469;SDS011;18925;48.356;10.864;2022-07-29T03:15:18;12.85;;;10.02;;
32469;SDS011;18925;48.356;10.864;2022-07-29T03:15:50;14.30;;;11.60;;
32469;SDS011;18925;48.356;10.864;2022-07-29T03:16:21;24.00;;;10.95;;
32469;SDS011;18925;48.356;10.864;2022-07-29T03:16:53;18.42;;;11.23;;
32469;SDS011;18925;48.356;10.864;2022-07-29T03:17:24;15.77;;;9.80;;
32469;SDS011;18925;48.356;10.864;2022-07-29T03:17:55;14.90;;;10.35;;
32469;SDS011;18925;48.356;10.864;2022-07-29T03:18:28;20.15;;;10.88;;
32469;SDS011;18925;48.356;10.864;2022-07-29T03:19:00;15.43;;;10.82;;
32469;SDS011;18925;48.356;10.864;2022-07-29T03:19:31;23.50;;;11.23;;
32469;SDS011;18925;48.356;10.864;2022-07-29T03:20:02;17.48;;;10.00;;
32469;SDS011;18925;48.356;10.864;2022-07-29T03:20:33;15.55;;;10.23;;
32469;SDS011;18925;48.356;10.864;2022-07-29T03:21:04;15.98;;;10.75;;
32469;SDS011;18925;48.356;10.864;2022-07-29T03:21:35;14.27;;;10.77;;
32469;SDS011;18925;48.356;10.864;2022-07-29T03:22:05;21.00;;;12.27;;
32469;SDS011;18925;48.356;10.864;2022-07-29T03:22:40;17.45;;;12.15;;
32469;SDS011;18925;48.356;10.864;2022-07-29T03:23:17;13.35;;;10.82;;
32469;SDS011;18925;48.356;10.864;2022-07-29T03:23:50;17.77;;;12.27;;
32469;SDS011;18925;48.356;10.864;2022-07-29T03:24:39;15.27;;;10.77;;
32469;SDS011;18925;48.356;10.864;2022-07-29T03:25:13;18.60;;;11.20;;
32469;SDS011;18925;48.356;10.864;2022-07-29T03:25:45;14.30;;;10.88;;
32469;SDS011;18925;48.356;10.864;2022-07-29T03:26:16;16.60;;;11.25;;